YLK weather

Barrie-Orillia (Lake Simcoe Regional Airport)
Barrie-Orillia, Ontario, Canada

Public forecast

Using degrees Celsius for public forecast. Weather courtesy of forecast.io.

METAR (pilot weather report)

Closest report is CFB Borden, 20.0 nm (37.0 km) SW. Retrieved 2019/03/23 02:00 UTC (27 seconds ago):

CYBN 230200Z AUTO 34017G27KT 9SM OVC028 OVC058 M03/M09 A2994 RMK SLP149

TAF (pilot weather forecast)

Forecast is more than 6 hours old.

Closest forecast is CFB Borden, 20.0 nm (37.0 km) SW. Retrieved 2019/03/22 18:33 UTC (7 hours ago):

TAF TAF CYBN 221730Z 2218/2306 32020G35KT P6SM SCT010 OVC025 TEMPO 2218/2304 2SM -SHSN BR OVC010 FM230400 32020G35KT P6SM SCT025 RMK FCST BASED ON AUTO OBS. NXT FCST BY 230000Z